^^
Grace C. Lehan Memorial Weather Station Historical Data
Daily Summary for January 3, 2021 Units:  Metric    English   Both
Daily Weekly Monthly Yearly
  High: Low: Average:
Temperature: 11.9 °C 1.8 °C 6.7 °C
Dew Point: 2.8 °C -0.9 °C 0.5 °C
Humidity: 89% 42.8% 66%
Wind Speed: 9.7km/h 0km/h 1.4km/h
Wind Gust: 25.7km/h - -
Wind- - WNW
Pressure: 1025.6 hPa 1020.5 hPa -
Precipitation: 0 mm    
 
 
Tabular Data for January 3, 2021
Time Temperature Dew Point Pressure Wind Wind Speed Wind Gust Humidity Rainfall Rate (Hourly) solar
00:00 7.4 °C 1.5 °C 1020.5 hPa Calm     66% 0 mm 0 W/m2
00:09 7.3 °C 1.5 °C 1020.5 hPa Calm     66.7% 0 mm 0 W/m2
00:14 7.3 °C 1.8 °C 1020.5 hPa Calm     68% 0 mm 0 W/m2
00:19 7.2 °C 1.7 °C 1020.5 hPa Calm     68% 0 mm 0 W/m2
00:24 7.2 °C 1.8 °C 1020.5 hPa Calm     68.5% 0 mm 0 W/m2
00:29 7.1 °C 1.7 °C 1020.5 hPa Calm     68.4% 0 mm 0 W/m2
00:34 7.1 °C 1.7 °C 1020.5 hPa Calm     68.4% 0 mm 0 W/m2
00:39 7 °C 1.4 °C 1020.5 hPa Calm     67.6% 0 mm 0 W/m2
00:44 6.9 °C 1.7 °C 1020.5 hPa Calm     69% 0 mm 0 W/m2
00:49 6.9 °C 1.7 °C 1020.5 hPa Calm     69% 0 mm 0 W/m2
00:54 6.9 °C 1.4 °C 1020.5 hPa Calm     68.1% 0 mm 0 W/m2
00:59 6.8 °C 1.4 °C 1020.5 hPa Calm     68.1% 0 mm 0 W/m2
01:04 6.8 °C 1.6 °C 1020.5 hPa Calm     69.2% 0 mm 0 W/m2
01:09 6.7 °C 1.6 °C 1020.5 hPa Calm     70% 0 mm 0 W/m2
01:14 6.6 °C 1.5 °C 1020.9 hPa Calm     70% 0 mm 0 W/m2
01:19 6.5 °C 1.4 °C 1020.9 hPa Calm     70.3% 0 mm 0 W/m2
01:24 6.3 °C 1.5 °C 1020.5 hPa Calm     71% 0 mm 0 W/m2
01:29 6.2 °C 1.4 °C 1020.9 hPa Calm     71% 0 mm 0 W/m2
01:34 6.2 °C 1.1 °C 1020.5 hPa Calm     70.2% 0 mm 0 W/m2
01:39 6.1 °C 0.8 °C 1020.5 hPa Calm     69.1% 0 mm 0 W/m2
01:44 6 °C 0.8 °C 1020.9 hPa Calm     69% 0 mm 0 W/m2
01:49 6 °C 0.8 °C 1020.9 hPa Calm     69.3% 0 mm 0 W/m2
01:54 5.9 °C 1.2 °C 1020.9 hPa Calm     71.7% 0 mm 0 W/m2
01:59 5.8 °C 1.2 °C 1020.5 hPa Calm     72% 0 mm 0 W/m2
02:04 5.7 °C 1.3 °C 1020.5 hPa Calm     73.4% 0 mm 0 W/m2
02:09 5.6 °C 1.4 °C 1020.5 hPa Calm     74.2% 0 mm 0 W/m2
02:14 5.5 °C 1.4 °C 1020.5 hPa Calm     74.8% 0 mm 0 W/m2
02:19 5.4 °C 1.1 °C 1020.5 hPa Calm     73.6% 0 mm 0 W/m2
02:24 5.3 °C 1 °C 1020.5 hPa Calm     74% 0 mm 0 W/m2
02:29 5.2 °C 1.3 °C 1020.5 hPa Calm     75.8% 0 mm 0 W/m2
02:34 5 °C 1.4 °C 1020.5 hPa Calm     77.5% 0 mm 0 W/m2
02:39 4.8 °C 1.2 °C 1020.5 hPa Calm     77% 0 mm 0 W/m2
02:44 4.7 °C 1.1 °C 1020.9 hPa Calm     77.8% 0 mm 0 W/m2
02:49 4.5 °C 1.2 °C 1020.9 hPa Calm     79% 0 mm 0 W/m2
02:54 4.3 °C 1 °C 1020.9 hPa Calm     79% 0 mm 0 W/m2
02:59 4.2 °C 0.9 °C 1020.9 hPa Calm     79.2% 0 mm 0 W/m2
03:04 4 °C 0.9 °C 1020.9 hPa Calm     80.3% 0 mm 0 W/m2
03:09 3.8 °C 0.9 °C 1020.9 hPa Calm     81.3% 0 mm 0 W/m2
03:14 3.7 °C 0.9 °C 1020.9 hPa Calm     82.3% 0 mm 0 W/m2
03:19 3.6 °C 1 °C 1020.9 hPa Calm     83.2% 0 mm 0 W/m2
03:24 3.5 °C 1.1 °C 1020.9 hPa Calm     84.4% 0 mm 0 W/m2
03:29 3.5 °C 1.2 °C 1020.9 hPa Calm     85% 0 mm 0 W/m2
03:34 3.4 °C 1.2 °C 1020.9 hPa Calm     85% 0 mm 0 W/m2
03:39 3.4 °C 1.1 °C 1020.9 hPa Calm     85% 0 mm 0 W/m2
03:44 3.4 °C 1.1 °C 1020.9 hPa Calm     85% 0 mm 0 W/m2
03:49 3.3 °C 1.1 °C 1020.9 hPa Calm     85% 0 mm 0 W/m2
03:54 3.3 °C 1.1 °C 1020.9 hPa Calm     85% 0 mm 0 W/m2
03:59 3.3 °C 1.1 °C 1020.9 hPa Calm     85.2% 0 mm 0 W/m2
04:00 3.3 °C 1.2 °C 1020.9 hPa Calm     86% 0 mm 0 W/m2
04:09 3.2 °C 1.1 °C 1021.2 hPa Calm   1.6 km/h 86% 0 mm 0 W/m2
04:14 3.2 °C 1.1 °C 1021.2 hPa NW 0.2 km/h 3.2 km/h 86% 0 mm 0 W/m2
04:19 3.1 °C 0.9 °C 1021.2 hPa Calm   3.2 km/h 86% 0 mm 0 W/m2
04:24 2.9 °C 0.8 °C 1020.9 hPa Calm   3.2 km/h 86% 0 mm 0 W/m2
04:29 2.9 °C 0.8 °C 1020.9 hPa Calm   3.2 km/h 86% 0 mm 0 W/m2
04:34 2.8 °C 0.7 °C 1020.9 hPa Calm   3.2 km/h 86% 0 mm 0 W/m2
04:39 2.8 °C 0.7 °C 1021.2 hPa Calm     86% 0 mm 0 W/m2
04:44 2.8 °C 0.7 °C 1021.2 hPa Calm     86% 0 mm 0 W/m2
04:49 2.7 °C 0.6 °C 1021.2 hPa Calm     86% 0 mm 0 W/m2
04:54 2.7 °C 0.6 °C 1021.2 hPa Calm     86% 0 mm 0 W/m2
04:59 2.7 °C 0.6 °C 1021.2 hPa Calm     86% 0 mm 0 W/m2
05:04 2.7 °C 0.6 °C 1021.2 hPa Calm     86% 0 mm 0 W/m2
05:09 2.6 °C 0.5 °C 1021.2 hPa Calm     86% 0 mm 0 W/m2
05:14 2.6 °C 0.6 °C 1021.2 hPa Calm     86.9% 0 mm 0 W/m2
05:19 2.6 °C 0.6 °C 1021.2 hPa Calm     87% 0 mm 0 W/m2
05:24 2.6 °C 0.6 °C 1021.2 hPa Calm     87% 0 mm 0 W/m2
05:29 2.6 °C 0.6 °C 1021.2 hPa Calm     87% 0 mm 0 W/m2
05:34 2.6 °C 0.6 °C 1021.2 hPa Calm     87% 0 mm 0 W/m2
05:39 2.6 °C 0.6 °C 1021.2 hPa Calm     87% 0 mm 0 W/m2
05:44 2.6 °C 0.6 °C 1021.2 hPa Calm     87% 0 mm 0 W/m2
05:49 2.5 °C 0.6 °C 1021.2 hPa Calm     87% 0 mm 0 W/m2
05:54 2.4 °C 0.5 °C 1021.2 hPa Calm     87% 0 mm 0 W/m2
05:59 2.4 °C 0.4 °C 1021.2 hPa Calm     87% 0 mm 0 W/m2
06:04 2.3 °C 0.4 °C 1021.2 hPa Calm     87% 0 mm 0 W/m2
06:09 2.3 °C 0.3 °C 1021.2 hPa Calm     87% 0 mm 0 W/m2
06:14 2.3 °C 0.3 °C 1021.2 hPa Calm     87% 0 mm 0 W/m2
06:19 2.3 °C 0.2 °C 1021.2 hPa Calm     86.1% 0 mm 0 W/m2
06:24 2.3 °C 0.2 °C 1021.2 hPa Calm     86.4% 0 mm 0 W/m2
06:29 2.3 °C 0.3 °C 1021.2 hPa Calm     87% 0 mm 0 W/m2
06:34 2.3 °C 0.3 °C 1021.2 hPa Calm     87% 0 mm 0 W/m2
06:39 2.2 °C 0.3 °C 1021.2 hPa Calm     87% 0 mm 0 W/m2
06:44 2.2 °C 0.3 °C 1021.2 hPa Calm     87.2% 0 mm 0 W/m2
06:49 2.1 °C 0.1 °C 1021.2 hPa Calm     86.5% 0 mm 0 W/m2
06:54 2.1 °C 0.2 °C 1021.2 hPa Calm     87% 0 mm 0 W/m2
06:59 2.1 °C 0.2 °C 1021.2 hPa Calm     87% 0 mm 0 W/m2
07:04 2.1 °C 0.2 °C 1021.2 hPa Calm     87% 0 mm 0 W/m2
07:09 2.1 °C 0.1 °C 1021.2 hPa Calm     87% 0 mm 0 W/m2
07:14 2 °C 0.1 °C 1021.2 hPa Calm     87% 0 mm 0 W/m2
07:19 1.9 °C 0 °C 1021.2 hPa Calm     87% 0 mm 0 W/m2
07:24 1.9 °C -0.1 °C 1021.2 hPa Calm     87% 0 mm 0 W/m2
07:29 1.8 °C 0.1 °C 1021.2 hPa Calm     88% 0 mm 5 W/m2
07:34 1.8 °C 0 °C 1021.2 hPa Calm     88% 0 mm 7 W/m2
07:39 1.8 °C 0 °C 1021.2 hPa Calm     88% 0 mm 12 W/m2
07:44 1.8 °C 0 °C 1021.2 hPa Calm     88% 0 mm 14 W/m2
07:49 1.8 °C 0.1 °C 1021.2 hPa Calm     88.4% 0 mm 16 W/m2
07:54 1.9 °C 0.3 °C 1021.2 hPa Calm     89% 0 mm 21 W/m2
07:59 2 °C 0.4 °C 1021.6 hPa Calm     89% 0 mm 21 W/m2
08:00 2.1 °C 0.4 °C 1021.6 hPa Calm     89% 0 mm 19 W/m2
08:09 2.3 °C 0.6 °C 1021.6 hPa Calm     88.3% 0 mm 49 W/m2
08:14 2.4 °C 0.7 °C 1021.6 hPa Calm     88% 0 mm 51 W/m2
08:19 2.7 °C 0.7 °C 1021.6 hPa Calm     87.2% 0 mm 37 W/m2
08:24 2.8 °C 0.8 °C 1021.9 hPa Calm     86.8% 0 mm 76 W/m2
08:29 3 °C 0.9 °C 1021.9 hPa Calm     86.2% 0 mm 40 W/m2
08:34 3.2 °C 1.1 °C 1021.9 hPa Calm     86% 0 mm 56 W/m2
08:39 3.4 °C 1.2 °C 1021.9 hPa Calm     85.3% 0 mm 56 W/m2
08:44 3.6 °C 1.3 °C 1021.9 hPa Calm     85% 0 mm 76 W/m2
08:49 3.8 °C 1.4 °C 1022.2 hPa Calm     84.8% 0 mm 79 W/m2
08:54 3.9 °C 1.5 °C 1022.2 hPa WNW 1.6 km/h 9.7 km/h 83.9% 0 mm 148 W/m2
08:59 4.3 °C 1.6 °C 1022.2 hPa WNW 1.4 km/h 9.7 km/h 82.6% 0 mm 218 W/m2
09:04 4.7 °C 1.8 °C 1022.2 hPa WNW 1.4 km/h 9.7 km/h 81.3% 0 mm 285 W/m2
09:09 5.3 °C 1.9 °C 1022.2 hPa WNW 2.1 km/h 11.3 km/h 78.9% 0 mm 297 W/m2
09:14 6 °C 2.1 °C 1022.2 hPa WNW 3.7 km/h 11.3 km/h 76.2% 0 mm 309 W/m2
09:19 6.6 °C 2.1 °C 1022.2 hPa WNW 2.6 km/h 14.5 km/h 73% 0 mm 325 W/m2
09:24 7.2 °C 2.3 °C 1022.2 hPa West 1.8 km/h 14.5 km/h 71.1% 0 mm 339 W/m2
09:29 7.6 °C 2.3 °C 1022.2 hPa WNW 2.1 km/h 14.5 km/h 69.2% 0 mm 353 W/m2
09:34 8.1 °C 2.4 °C 1022.2 hPa WNW 1.8 km/h 14.5 km/h 67.9% 0 mm 366 W/m2
09:39 8.4 °C 2.4 °C 1022.2 hPa NW 4.8 km/h 11.3 km/h 66.1% 0 mm 378 W/m2
09:44 8.6 °C 2.4 °C 1022.6 hPa WNW 3.9 km/h 17.7 km/h 64.8% 0 mm 388 W/m2
09:49 8.9 °C 2.7 °C 1022.2 hPa WNW 1.3 km/h 17.7 km/h 65% 0 mm 399 W/m2
09:54 9.2 °C 2.8 °C 1022.2 hPa WNW 2.4 km/h 17.7 km/h 64.3% 0 mm 406 W/m2
09:59 9.6 °C 2.6 °C 1022.6 hPa WNW 3.5 km/h 17.7 km/h 62.1% 0 mm 417 W/m2
10:04 9.7 °C 2.6 °C 1022.6 hPa WNW 3.2 km/h 17.7 km/h 61.1% 0 mm 429 W/m2
10:09 9.9 °C 2.7 °C 1022.2 hPa WNW 3.9 km/h 14.5 km/h 60.4% 0 mm 439 W/m2
10:14 10.1 °C 2.3 °C 1022.6 hPa WNW 5.3 km/h 16.1 km/h 58.3% 0 mm 446 W/m2
10:19 10.1 °C 2.2 °C 1022.6 hPa WNW 4.2 km/h 16.1 km/h 58.1% 0 mm 436 W/m2
10:24 9.9 °C 1.9 °C 1022.6 hPa NW 3.5 km/h 17.7 km/h 57.8% 0 mm 153 W/m2
10:29 9.7 °C 2.1 °C 1022.6 hPa NW 2.3 km/h 17.7 km/h 58.9% 0 mm 476 W/m2
10:34 9.7 °C 1.9 °C 1022.6 hPa WNW 6 km/h 19.3 km/h 58.6% 0 mm 490 W/m2
10:39 9.7 °C 1.9 °C 1022.2 hPa WNW 2.4 km/h 19.3 km/h 58.5% 0 mm 499 W/m2
10:44 9.7 °C 2 °C 1022.2 hPa West 1.3 km/h 19.3 km/h 58.5% 0 mm 503 W/m2
10:49 9.8 °C 2 °C 1022.2 hPa WNW 3.4 km/h 19.3 km/h 58.1% 0 mm 515 W/m2
10:54 10 °C 2.1 °C 1022.6 hPa NW 1 km/h 19.3 km/h 58% 0 mm 517 W/m2
10:59 10.2 °C 2.1 °C 1022.6 hPa NW 5 km/h 19.3 km/h 57.2% 0 mm 432 W/m2
11:04 10.2 °C 1.4 °C 1022.6 hPa WNW 8.5 km/h 22.5 km/h 54.7% 0 mm 538 W/m2
11:09 10.1 °C 1.6 °C 1022.2 hPa WNW 2.6 km/h 22.5 km/h 55.4% 0 mm 543 W/m2
11:14 10.3 °C 1.7 °C 1022.6 hPa WNW 9.7 km/h 22.5 km/h 55.3% 0 mm 552 W/m2
11:19 10.4 °C 1.3 °C 1022.6 hPa WNW 5 km/h 22.5 km/h 53% 0 mm 557 W/m2
11:24 10.6 °C 1.6 °C 1022.6 hPa NW 4.5 km/h 22.5 km/h 53.5% 0 mm 561 W/m2
11:29 10.8 °C 1.8 °C 1022.6 hPa WNW 5.1 km/h 22.5 km/h 53.5% 0 mm 568 W/m2
11:34 11 °C 1.7 °C 1022.6 hPa NW 5.6 km/h 22.5 km/h 52.5% 0 mm 577 W/m2
11:39 11.2 °C 1.9 °C 1022.6 hPa NW 3.7 km/h 20.9 km/h 52.6% 0 mm 582 W/m2
11:44 11.4 °C 1.9 °C 1022.2 hPa NW 3.9 km/h 20.9 km/h 52% 0 mm 552 W/m2
11:49 11.7 °C 2 °C 1022.2 hPa WNW 4.5 km/h 22.5 km/h 51.5% 0 mm 543 W/m2
11:54 11.7 °C 1.3 °C 1022.2 hPa WNW 7.1 km/h 25.7 km/h 48.9% 0 mm 543 W/m2
11:59 11.4 °C 1.1 °C 1022.2 hPa WNW 5.1 km/h 25.7 km/h 49.1% 0 mm 181 W/m2
12:09 11 °C 1.3 °C 1022.2 hPa WNW 2.4 km/h 17.7 km/h 51% 0 mm 202 W/m2
12:14 11 °C 0.9 °C 1021.9 hPa West 4.7 km/h 19.3 km/h 49.8% 0 mm 381 W/m2
12:19 11.1 °C 1 °C 1022.2 hPa West 3.4 km/h 19.3 km/h 49.9% 0 mm 381 W/m2
12:24 11.2 °C 0.9 °C 1022.2 hPa NW 2.7 km/h 19.3 km/h 49.3% 0 mm 151 W/m2
12:29 11.2 °C 0.9 °C 1021.9 hPa NW 3.2 km/h 19.3 km/h 48.9% 0 mm 283 W/m2
12:34 11.3 °C 0.7 °C 1021.9 hPa NW 7.7 km/h 19.3 km/h 47.9% 0 mm 127 W/m2
12:39 11.3 °C 0.5 °C 1021.9 hPa WNW 2.6 km/h 19.3 km/h 47.2% 0 mm 209 W/m2
12:44 11.4 °C 0.7 °C 1021.9 hPa NW 3.2 km/h 19.3 km/h 47.4% 0 mm 339 W/m2
12:49 11.6 °C 0.3 °C 1021.9 hPa NW 6.3 km/h 20.9 km/h 45.8% 0 mm 190 W/m2
12:54 11.4 °C -0.4 °C 1021.6 hPa NW 6.8 km/h 20.9 km/h 43.9% 0 mm 172 W/m2
12:59 11.2 °C -0.6 °C 1021.6 hPa WNW 6.4 km/h 20.9 km/h 44.1% 0 mm 306 W/m2
13:04 11.1 °C -0.6 °C 1021.6 hPa NW 7.4 km/h 20.9 km/h 44.4% 0 mm 547 W/m2
13:09 11.1 °C -0.6 °C 1021.6 hPa NW 2.6 km/h 17.7 km/h 44.4% 0 mm 455 W/m2
13:14 11.2 °C -0.1 °C 1021.6 hPa WNW 4.8 km/h 17.7 km/h 45.5% 0 mm 385 W/m2
13:19 11.3 °C 0.1 °C 1021.2 hPa WNW 3.9 km/h 20.9 km/h 45.8% 0 mm 422 W/m2
13:24 11.5 °C 0.1 °C 1021.2 hPa NNW 1.9 km/h 20.9 km/h 45.2% 0 mm 517 W/m2
13:29 11.7 °C 0.2 °C 1021.2 hPa WNW 6.4 km/h 20.9 km/h 44.9% 0 mm 594 W/m2
13:34 11.9 °C -0.2 °C 1021.2 hPa NW 6.4 km/h 22.5 km/h 43.1% 0 mm 527 W/m2
13:39 11.8 °C -0.3 °C 1021.2 hPa NW 7.2 km/h 22.5 km/h 43% 0 mm 83 W/m2
13:44 11.8 °C 0.1 °C 1021.2 hPa NW 3.7 km/h 22.5 km/h 44.5% 0 mm 309 W/m2
13:49 11.8 °C 0.1 °C 1020.9 hPa NW 4.5 km/h 22.5 km/h 44.5% 0 mm 334 W/m2
13:54 11.8 °C -0.1 °C 1020.9 hPa WNW 5.6 km/h 22.5 km/h 43.9% 0 mm 506 W/m2
13:59 11.8 °C -0.2 °C 1020.9 hPa NW 6 km/h 22.5 km/h 43.6% 0 mm 534 W/m2
14:04 11.8 °C -0.1 °C 1020.9 hPa NW 6.8 km/h 24.1 km/h 43.7% 0 mm 70 W/m2
14:09 11.8 °C -0.1 °C 1020.9 hPa NW 8.4 km/h 24.1 km/h 44% 0 mm 269 W/m2
14:14 11.6 °C 0.1 °C 1020.9 hPa NW 4.2 km/h 24.1 km/h 45% 0 mm 221 W/m2
14:19 11.6 °C 0 °C 1020.9 hPa NW 7.7 km/h 24.1 km/h 44.8% 0 mm 221 W/m2
14:24 11.5 °C -0.1 °C 1020.9 hPa NW 4.3 km/h 24.1 km/h 44.8% 0 mm 243 W/m2
14:29 11.4 °C 0 °C 1020.9 hPa NW 2.6 km/h 24.1 km/h 45.3% 0 mm 359 W/m2
14:34 11.6 °C 0.3 °C 1020.9 hPa West 2.6 km/h 24.1 km/h 46% 0 mm 487 W/m2
14:39 11.7 °C 0.1 °C 1020.9 hPa WNW 6.3 km/h 14.5 km/h 44.6% 0 mm 478 W/m2
14:44 11.7 °C -0.1 °C 1021.2 hPa WNW 3.7 km/h 16.1 km/h 44% 0 mm 160 W/m2
14:49 11.6 °C -0.5 °C 1021.2 hPa WNW 4.5 km/h 16.1 km/h 43.1% 0 mm 148 W/m2
14:54 11.6 °C -0.7 °C 1021.2 hPa NW 5.1 km/h 16.1 km/h 42.8% 0 mm 116 W/m2
14:59 11.5 °C -0.3 °C 1021.2 hPa NNW 2.6 km/h 16.1 km/h 44% 0 mm 114 W/m2
15:04 11.5 °C -0.5 °C 1021.2 hPa WNW 6.6 km/h 22.5 km/h 43.4% 0 mm 40 W/m2
15:09 11.3 °C -0.5 °C 1021.2 hPa NW 0.6 km/h 22.5 km/h 43.8% 0 mm 58 W/m2
15:14 11.2 °C -0.2 °C 1021.2 hPa WNW 3.5 km/h 22.5 km/h 45.4% 0 mm 33 W/m2
15:19 10.9 °C -0.6 °C 1021.2 hPa WNW 3.4 km/h 22.5 km/h 45% 0 mm 320 W/m2
15:24 10.7 °C -0.8 °C 1021.2 hPa WNW 6.1 km/h 22.5 km/h 44.7% 0 mm 320 W/m2
15:29 10.6 °C -0.9 °C 1021.2 hPa WNW 3.4 km/h 22.5 km/h 44.8% 0 mm 30 W/m2
15:34 10.4 °C -0.8 °C 1021.2 hPa WNW 4 km/h 22.5 km/h 45.5% 0 mm 40 W/m2
15:39 10.4 °C -0.4 °C 1021.2 hPa West 3.1 km/h 16.1 km/h 47.1% 0 mm 37 W/m2
15:44 10.4 °C -0.7 °C 1021.2 hPa WNW 4.3 km/h 16.1 km/h 46.1% 0 mm 39 W/m2
15:49 10.5 °C -0.6 °C 1021.2 hPa West 3.4 km/h 16.1 km/h 46% 0 mm 42 W/m2
15:54 10.6 °C -0.7 °C 1021.2 hPa West 2.9 km/h 16.1 km/h 45.3% 0 mm 58 W/m2
15:59 10.7 °C -0.6 °C 1021.2 hPa WNW 1 km/h 16.1 km/h 45.4% 0 mm 58 W/m2
16:00 10.7 °C -0.4 °C 1021.2 hPa Calm   16.1 km/h 46% 0 mm 40 W/m2
16:09 10.8 °C -0.4 °C 1021.2 hPa WNW 2.7 km/h 14.5 km/h 45.9% 0 mm 51 W/m2
16:14 10.8 °C -0.3 °C 1021.2 hPa WSW 2.6 km/h 14.5 km/h 46% 0 mm 72 W/m2
16:19 10.8 °C -0.4 °C 1021.2 hPa SW 1.3 km/h 14.5 km/h 45.8% 0 mm 72 W/m2
16:24 10.9 °C -0.3 °C 1021.2 hPa SW 0.6 km/h 14.5 km/h 45.8% 0 mm 70 W/m2
16:29 10.9 °C -0.2 °C 1021.2 hPa WNW 4 km/h 14.5 km/h 46% 0 mm 63 W/m2
16:34 10.9 °C -0.6 °C 1021.6 hPa WNW 1.9 km/h 14.5 km/h 44.8% 0 mm 46 W/m2
16:39 10.9 °C -0.7 °C 1021.6 hPa WNW 4.5 km/h 17.7 km/h 44.7% 0 mm 30 W/m2
16:44 10.8 °C -0.9 °C 1021.6 hPa WNW 4.5 km/h 17.7 km/h 44.2% 0 mm 23 W/m2
16:49 10.6 °C -0.7 °C 1021.6 hPa NW 2.1 km/h 17.7 km/h 45.6% 0 mm 19 W/m2
16:54 10.4 °C -0.7 °C 1021.6 hPa WNW 2.3 km/h 17.7 km/h 46% 0 mm 19 W/m2
16:59 10.3 °C -0.8 °C 1021.6 hPa NW 2.9 km/h 17.7 km/h 46% 0 mm 18 W/m2
17:04 10.2 °C -0.7 °C 1021.6 hPa NW 0.5 km/h 17.7 km/h 46.5% 0 mm 16 W/m2
17:09 10.1 °C -0.6 °C 1021.6 hPa WNW 3.4 km/h 17.7 km/h 47.4% 0 mm 14 W/m2
17:14 10 °C -0.6 °C 1021.6 hPa NW 1.9 km/h 17.7 km/h 47.7% 0 mm 12 W/m2
17:19 9.9 °C -0.6 °C 1021.9 hPa NW 2.4 km/h 17.7 km/h 48% 0 mm 14 W/m2
17:24 9.8 °C -0.4 °C 1021.9 hPa Calm   17.7 km/h 49.1% 0 mm 14 W/m2
17:29 9.7 °C -0.3 °C 1021.9 hPa Calm   17.7 km/h 50% 0 mm 14 W/m2
17:34 9.6 °C -0.3 °C 1021.9 hPa NW 0.3 km/h 17.7 km/h 50.2% 0 mm 9 W/m2
17:39 9.4 °C -0.2 °C 1022.2 hPa NW 0.3 km/h 3.2 km/h 51% 0 mm 5 W/m2
17:44 9.3 °C -0.1 °C 1022.2 hPa NW 0.2 km/h 3.2 km/h 51.8% 0 mm 0 W/m2
17:49 9.2 °C -0.2 °C 1022.2 hPa NW 1 km/h 6.4 km/h 51.8% 0 mm 0 W/m2
17:54 9 °C -0.3 °C 1022.2 hPa Calm   6.4 km/h 52.2% 0 mm 0 W/m2
17:59 8.9 °C -0.2 °C 1022.2 hPa NW 0.2 km/h 6.4 km/h 53% 0 mm 0 W/m2
18:04 8.7 °C -0.3 °C 1022.2 hPa Calm   6.4 km/h 53% 0 mm 0 W/m2
18:09 8.6 °C -0.4 °C 1022.6 hPa Calm   1.6 km/h 53.2% 0 mm 0 W/m2
18:14 8.5 °C -0.3 °C 1022.6 hPa Calm   1.6 km/h 54% 0 mm 0 W/m2
18:19 8.3 °C -0.4 °C 1022.6 hPa Calm   1.6 km/h 54.2% 0 mm 0 W/m2
18:24 8.2 °C -0.3 °C 1022.6 hPa Calm   1.6 km/h 55% 0 mm 0 W/m2
18:29 8.1 °C -0.3 °C 1022.6 hPa Calm   1.6 km/h 55.4% 0 mm 0 W/m2
18:34 7.9 °C -0.3 °C 1022.9 hPa Calm   1.6 km/h 56% 0 mm 0 W/m2
18:39 7.8 °C -0.2 °C 1022.9 hPa Calm   1.6 km/h 57% 0 mm 0 W/m2
18:44 7.6 °C -0.1 °C 1022.9 hPa Calm   1.6 km/h 58% 0 mm 0 W/m2
18:49 7.4 °C 0 °C 1022.9 hPa Calm   1.6 km/h 59.2% 0 mm 0 W/m2
18:54 7.3 °C 0 °C 1023.2 hPa Calm   1.6 km/h 59.8% 0 mm 0 W/m2
18:59 7.1 °C -0.1 °C 1022.9 hPa Calm   1.6 km/h 60.3% 0 mm 0 W/m2
19:04 6.9 °C -0.1 °C 1023.2 hPa Calm   1.6 km/h 61% 0 mm 0 W/m2
19:09 6.8 °C -0.1 °C 1023.2 hPa Calm     61.4% 0 mm 0 W/m2
19:14 6.7 °C 0 °C 1023.2 hPa Calm     62.5% 0 mm 0 W/m2
19:19 6.5 °C -0.1 °C 1023.2 hPa Calm     63% 0 mm 0 W/m2
19:24 6.4 °C 0 °C 1023.2 hPa Calm   4.8 km/h 63.7% 0 mm 0 W/m2
19:29 6.2 °C -0.1 °C 1023.6 hPa NW 0.2 km/h 4.8 km/h 64% 0 mm 0 W/m2
19:34 6.1 °C -0.2 °C 1023.6 hPa Calm   4.8 km/h 64% 0 mm 0 W/m2
19:39 6.1 °C -0.3 °C 1023.6 hPa Calm     64% 0 mm 0 W/m2
19:44 6 °C -0.2 °C 1023.6 hPa Calm     64.6% 0 mm 0 W/m2
19:49 5.9 °C -0.2 °C 1023.6 hPa Calm     65% 0 mm 0 W/m2
19:54 5.8 °C -0.2 °C 1023.9 hPa Calm     65% 0 mm 0 W/m2
19:59 5.8 °C -0.3 °C 1023.9 hPa Calm     65% 0 mm 0 W/m2
20:00 5.7 °C -0.3 °C 1023.9 hPa Calm     65% 0 mm 0 W/m2
20:09 5.6 °C -0.4 °C 1023.9 hPa Calm     65% 0 mm 0 W/m2
20:14 5.6 °C -0.5 °C 1023.9 hPa Calm     65% 0 mm 0 W/m2
20:19 5.5 °C -0.6 °C 1023.9 hPa Calm     64.7% 0 mm 0 W/m2
20:24 5.4 °C -0.8 °C 1023.9 hPa Calm     64% 0 mm 0 W/m2
20:29 5.4 °C -0.6 °C 1023.9 hPa Calm     65.2% 0 mm 0 W/m2
20:34 5.3 °C -0.5 °C 1024.3 hPa Calm     66% 0 mm 0 W/m2
20:39 5.3 °C -0.6 °C 1023.9 hPa Calm     66% 0 mm 0 W/m2
20:44 5.2 °C -0.4 °C 1023.9 hPa Calm     67.1% 0 mm 0 W/m2
20:49 5.1 °C -0.2 °C 1024.3 hPa Calm     68.8% 0 mm 0 W/m2
20:54 5 °C -0.4 °C 1024.3 hPa Calm     68.2% 0 mm 0 W/m2
20:59 4.9 °C -0.5 °C 1024.3 hPa Calm     68% 0 mm 0 W/m2
21:04 4.8 °C -0.6 °C 1024.3 hPa Calm     68% 0 mm 0 W/m2
21:09 4.7 °C -0.7 °C 1024.3 hPa Calm     68% 0 mm 0 W/m2
21:14 4.7 °C -0.6 °C 1024.3 hPa Calm     68.8% 0 mm 0 W/m2
21:19 4.6 °C -0.2 °C 1024.3 hPa Calm     70.9% 0 mm 0 W/m2
21:24 4.5 °C -0.1 °C 1024.3 hPa Calm     72% 0 mm 0 W/m2
21:29 4.4 °C -0.4 °C 1024.3 hPa NW 0.3 km/h 3.2 km/h 71.1% 0 mm 0 W/m2
21:34 4.3 °C -0.4 °C 1024.6 hPa Calm   3.2 km/h 71% 0 mm 0 W/m2
21:39 4.4 °C -0.4 °C 1024.6 hPa Calm     71% 0 mm 0 W/m2
21:44 4.4 °C -0.4 °C 1024.6 hPa Calm     71% 0 mm 0 W/m2
21:49 4.4 °C -0.2 °C 1024.6 hPa Calm     71.7% 0 mm 0 W/m2
21:54 4.4 °C -0.2 °C 1024.6 hPa Calm     71.7% 0 mm 0 W/m2
21:59 4.4 °C -0.4 °C 1024.6 hPa Calm     71.2% 0 mm 0 W/m2
22:04 4.4 °C -0.4 °C 1024.6 hPa Calm     71% 0 mm 0 W/m2
22:09 4.4 °C -0.4 °C 1024.9 hPa NW 0.2 km/h 3.2 km/h 71% 0 mm 0 W/m2
22:14 4.4 °C -0.3 °C 1024.9 hPa NW 0.3 km/h 4.8 km/h 71.2% 0 mm 0 W/m2
22:19 4.4 °C -0.2 °C 1024.9 hPa NW 1.6 km/h 8 km/h 71.9% 0 mm 0 W/m2
22:24 4.6 °C -0.2 °C 1024.9 hPa NW 0.8 km/h 8 km/h 71.5% 0 mm 0 W/m2
22:29 4.6 °C -0.1 °C 1024.9 hPa NW 1.1 km/h 9.7 km/h 72% 0 mm 0 W/m2
22:34 4.6 °C -0.2 °C 1024.9 hPa NW 1.3 km/h 9.7 km/h 71.2% 0 mm 0 W/m2
22:39 4.7 °C -0.1 °C 1024.9 hPa NW 0.3 km/h 4.8 km/h 71% 0 mm 0 W/m2
22:44 4.7 °C -0.1 °C 1024.9 hPa NW 0.6 km/h 6.4 km/h 71% 0 mm 0 W/m2
22:49 4.8 °C -0.1 °C 1025.3 hPa NNE 0.5 km/h 6.4 km/h 71% 0 mm 0 W/m2
22:54 4.8 °C 0 °C 1025.3 hPa Calm   6.4 km/h 71% 0 mm 0 W/m2
22:59 4.8 °C 0 °C 1025.3 hPa Calm   6.4 km/h 71% 0 mm 0 W/m2
23:04 4.8 °C -0.1 °C 1025.3 hPa Calm   6.4 km/h 71% 0 mm 0 W/m2
23:09 4.7 °C -0.1 °C 1025.3 hPa North 0.8 km/h 6.4 km/h 71.2% 0 mm 0 W/m2
23:14 4.6 °C 0.1 °C 1025.3 hPa North 0.2 km/h 6.4 km/h 72.1% 0 mm 0 W/m2
23:19 4.6 °C 0.1 °C 1025.3 hPa NNW 1.8 km/h 8 km/h 72.7% 0 mm 0 W/m2
23:24 4.7 °C 0.2 °C 1025.3 hPa NNW 0.6 km/h 11.3 km/h 73% 0 mm 0 W/m2
23:29 4.7 °C 0.2 °C 1025.3 hPa NNW 0.3 km/h 11.3 km/h 73% 0 mm 0 W/m2
23:34 4.7 °C 0.3 °C 1025.6 hPa NNW 1 km/h 11.3 km/h 73% 0 mm 0 W/m2
23:39 4.7 °C 0.3 °C 1025.6 hPa NW 1.6 km/h 6.4 km/h 73% 0 mm 0 W/m2
23:44 4.8 °C 0.3 °C 1025.6 hPa NW 0.5 km/h 6.4 km/h 73% 0 mm 0 W/m2
23:45 4.8 °C 0.3 °C 1025.6 hPa Calm   6.4 km/h 73% 0 mm 0 W/m2
Hartford County Weather
Compliments of Weather Underground - 2 mb